sensor_id;sensor_type;location;lat;lon;timestamp;P1;durP1;ratioP1;P2;durP2;ratioP2
2011;SDS011;1009;51.436;6.972;2022-11-14T00:00:07;11.07;;;9.97;;
2011;SDS011;1009;51.436;6.972;2022-11-14T00:02:35;11.20;;;10.10;;
2011;SDS011;1009;51.436;6.972;2022-11-14T00:05:02;12.00;;;9.90;;
2011;SDS011;1009;51.436;6.972;2022-11-14T00:07:30;11.17;;;10.00;;
2011;SDS011;1009;51.436;6.972;2022-11-14T00:09:59;15.20;;;10.53;;
2011;SDS011;1009;51.436;6.972;2022-11-14T00:12:26;10.97;;;9.87;;
2011;SDS011;1009;51.436;6.972;2022-11-14T00:14:53;12.93;;;10.00;;
2011;SDS011;1009;51.436;6.972;2022-11-14T00:17:19;11.17;;;10.17;;
2011;SDS011;1009;51.436;6.972;2022-11-14T00:19:46;10.37;;;9.37;;
2011;SDS011;1009;51.436;6.972;2022-11-14T00:22:13;11.00;;;9.40;;
2011;SDS011;1009;51.436;6.972;2022-11-14T00:24:40;11.07;;;9.93;;
2011;SDS011;1009;51.436;6.972;2022-11-14T00:27:08;12.03;;;10.37;;
2011;SDS011;1009;51.436;6.972;2022-11-14T00:29:34;10.57;;;9.47;;
2011;SDS011;1009;51.436;6.972;2022-11-14T00:32:02;10.23;;;9.23;;
2011;SDS011;1009;51.436;6.972;2022-11-14T00:34:29;10.33;;;9.23;;
2011;SDS011;1009;51.436;6.972;2022-11-14T00:36:56;12.10;;;9.70;;
2011;SDS011;1009;51.436;6.972;2022-11-14T00:39:22;10.20;;;9.20;;
2011;SDS011;1009;51.436;6.972;2022-11-14T00:41:49;12.77;;;10.60;;
2011;SDS011;1009;51.436;6.972;2022-11-14T00:44:18;10.60;;;9.60;;
2011;SDS011;1009;51.436;6.972;2022-11-14T00:46:44;11.50;;;10.30;;
2011;SDS011;1009;51.436;6.972;2022-11-14T00:49:11;12.10;;;10.90;;
2011;SDS011;1009;51.436;6.972;2022-11-14T00:51:38;12.50;;;11.30;;
2011;SDS011;1009;51.436;6.972;2022-11-14T00:54:04;11.33;;;10.10;;
2011;SDS011;1009;51.436;6.972;2022-11-14T00:56:31;11.90;;;10.73;;
2011;SDS011;1009;51.436;6.972;2022-11-14T00:58:58;12.13;;;10.93;;
2011;SDS011;1009;51.436;6.972;2022-11-14T01:01:26;11.43;;;10.40;;
2011;SDS011;1009;51.436;6.972;2022-11-14T01:03:53;12.57;;;11.27;;
2011;SDS011;1009;51.436;6.972;2022-11-14T01:06:20;11.23;;;10.03;;
2011;SDS011;1009;51.436;6.972;2022-11-14T01:08:48;14.20;;;12.00;;
2011;SDS011;1009;51.436;6.972;2022-11-14T01:11:17;14.63;;;12.00;;
2011;SDS011;1009;51.436;6.972;2022-11-14T01:13:44;12.80;;;11.50;;
2011;SDS011;1009;51.436;6.972;2022-11-14T01:16:12;14.03;;;12.57;;
2011;SDS011;1009;51.436;6.972;2022-11-14T01:18:40;11.67;;;10.60;;
2011;SDS011;1009;51.436;6.972;2022-11-14T01:21:08;11.77;;;10.77;;
2011;SDS011;1009;51.436;6.972;2022-11-14T01:23:36;13.23;;;10.60;;
2011;SDS011;1009;51.436;6.972;2022-11-14T01:26:04;11.83;;;10.67;;
2011;SDS011;1009;51.436;6.972;2022-11-14T01:28:32;13.30;;;11.50;;
2011;SDS011;1009;51.436;6.972;2022-11-14T01:31:06;12.73;;;11.27;;
2011;SDS011;1009;51.436;6.972;2022-11-14T01:33:34;13.77;;;11.60;;
2011;SDS011;1009;51.436;6.972;2022-11-14T01:36:02;13.20;;;11.90;;
2011;SDS011;1009;51.436;6.972;2022-11-14T01:38:30;13.73;;;12.30;;
2011;SDS011;1009;51.436;6.972;2022-11-14T01:40:57;12.97;;;11.77;;
2011;SDS011;1009;51.436;6.972;2022-11-14T01:43:25;14.40;;;12.90;;
2011;SDS011;1009;51.436;6.972;2022-11-14T01:45:57;14.50;;;12.00;;
2011;SDS011;1009;51.436;6.972;2022-11-14T01:48:27;13.40;;;11.97;;
2011;SDS011;1009;51.436;6.972;2022-11-14T01:51:00;15.40;;;11.93;;
2011;SDS011;1009;51.436;6.972;2022-11-14T01:53:30;13.50;;;12.17;;
2011;SDS011;1009;51.436;6.972;2022-11-14T01:55:58;12.23;;;11.03;;
2011;SDS011;1009;51.436;6.972;2022-11-14T01:58:28;14.70;;;13.20;;
2011;SDS011;1009;51.436;6.972;2022-11-14T02:00:56;12.80;;;11.60;;
2011;SDS011;1009;51.436;6.972;2022-11-14T02:03:24;13.00;;;11.70;;
2011;SDS011;1009;51.436;6.972;2022-11-14T02:05:51;13.93;;;11.77;;
2011;SDS011;1009;51.436;6.972;2022-11-14T02:08:19;13.97;;;12.50;;
2011;SDS011;1009;51.436;6.972;2022-11-14T02:10:47;12.93;;;11.33;;
2011;SDS011;1009;51.436;6.972;2022-11-14T02:13:14;14.20;;;12.73;;
2011;SDS011;1009;51.436;6.972;2022-11-14T02:15:41;12.83;;;11.63;;
2011;SDS011;1009;51.436;6.972;2022-11-14T02:18:08;14.83;;;13.23;;
2011;SDS011;1009;51.436;6.972;2022-11-14T02:20:38;12.97;;;11.73;;
2011;SDS011;1009;51.436;6.972;2022-11-14T02:23:07;12.47;;;11.30;;
2011;SDS011;1009;51.436;6.972;2022-11-14T02:25:35;13.87;;;12.43;;
2011;SDS011;1009;51.436;6.972;2022-11-14T02:28:03;12.83;;;11.53;;
2011;SDS011;1009;51.436;6.972;2022-11-14T02:30:31;12.67;;;11.47;;
2011;SDS011;1009;51.436;6.972;2022-11-14T02:32:58;13.63;;;12.23;;
2011;SDS011;1009;51.436;6.972;2022-11-14T02:35:25;13.63;;;12.23;;
2011;SDS011;1009;51.436;6.972;2022-11-14T02:37:53;13.97;;;12.57;;
2011;SDS011;1009;51.436;6.972;2022-11-14T02:40:19;13.63;;;11.80;;
2011;SDS011;1009;51.436;6.972;2022-11-14T02:42:46;15.50;;;12.30;;
2011;SDS011;1009;51.436;6.972;2022-11-14T02:45:13;13.00;;;11.50;;
2011;SDS011;1009;51.436;6.972;2022-11-14T02:47:40;12.10;;;10.90;;
2011;SDS011;1009;51.436;6.972;2022-11-14T02:50:07;13.60;;;11.73;;
2011;SDS011;1009;51.436;6.972;2022-11-14T02:52:34;13.67;;;11.83;;
2011;SDS011;1009;51.436;6.972;2022-11-14T02:55:02;14.27;;;12.33;;
2011;SDS011;1009;51.436;6.972;2022-11-14T02:57:29;14.97;;;11.97;;
2011;SDS011;1009;51.436;6.972;2022-11-14T02:59:56;13.57;;;12.17;;
2011;SDS011;1009;51.436;6.972;2022-11-14T03:02:23;13.63;;;12.30;;
2011;SDS011;1009;51.436;6.972;2022-11-14T03:04:50;18.33;;;13.53;;
2011;SDS011;1009;51.436;6.972;2022-11-14T03:07:16;13.70;;;11.80;;
2011;SDS011;1009;51.436;6.972;2022-11-14T03:09:43;16.73;;;13.57;;
2011;SDS011;1009;51.436;6.972;2022-11-14T03:12:12;12.93;;;11.50;;
2011;SDS011;1009;51.436;6.972;2022-11-14T03:14:41;14.17;;;12.77;;
2011;SDS011;1009;51.436;6.972;2022-11-14T03:17:08;13.67;;;12.27;;
2011;SDS011;1009;51.436;6.972;2022-11-14T03:19:35;12.97;;;11.67;;
2011;SDS011;1009;51.436;6.972;2022-11-14T03:22:02;13.07;;;11.60;;
2011;SDS011;1009;51.436;6.972;2022-11-14T03:24:29;14.60;;;12.97;;
2011;SDS011;1009;51.436;6.972;2022-11-14T03:26:56;15.10;;;13.07;;
2011;SDS011;1009;51.436;6.972;2022-11-14T03:29:24;14.70;;;13.20;;
2011;SDS011;1009;51.436;6.972;2022-11-14T03:31:50;13.93;;;12.60;;
2011;SDS011;1009;51.436;6.972;2022-11-14T03:34:17;13.00;;;11.80;;
2011;SDS011;1009;51.436;6.972;2022-11-14T03:36:44;13.53;;;12.13;;
2011;SDS011;1009;51.436;6.972;2022-11-14T03:39:11;15.20;;;13.10;;
2011;SDS011;1009;51.436;6.972;2022-11-14T03:41:37;14.30;;;12.80;;
2011;SDS011;1009;51.436;6.972;2022-11-14T03:44:04;13.47;;;10.90;;
2011;SDS011;1009;51.436;6.972;2022-11-14T03:46:32;13.90;;;12.37;;
2011;SDS011;1009;51.436;6.972;2022-11-14T03:48:59;13.23;;;11.83;;
2011;SDS011;1009;51.436;6.972;2022-11-14T03:51:26;14.03;;;12.30;;
2011;SDS011;1009;51.436;6.972;2022-11-14T03:53:52;12.33;;;10.93;;
2011;SDS011;1009;51.436;6.972;2022-11-14T03:56:19;14.43;;;13.03;;
2011;SDS011;1009;51.436;6.972;2022-11-14T03:58:46;13.43;;;12.03;;
2011;SDS011;1009;51.436;6.972;2022-11-14T04:01:12;13.63;;;11.93;;
2011;SDS011;1009;51.436;6.972;2022-11-14T04:03:41;15.47;;;12.07;;
2011;SDS011;1009;51.436;6.972;2022-11-14T04:06:07;14.23;;;12.80;;
2011;SDS011;1009;51.436;6.972;2022-11-14T04:08:34;14.03;;;12.63;;
2011;SDS011;1009;51.436;6.972;2022-11-14T04:11:01;14.87;;;13.37;;
2011;SDS011;1009;51.436;6.972;2022-11-14T04:13:28;12.70;;;11.50;;
2011;SDS011;1009;51.436;6.972;2022-11-14T04:15:55;14.50;;;13.00;;
2011;SDS011;1009;51.436;6.972;2022-11-14T04:18:22;14.03;;;12.63;;
2011;SDS011;1009;51.436;6.972;2022-11-14T04:20:50;15.73;;;13.43;;
2011;SDS011;1009;51.436;6.972;2022-11-14T04:23:17;13.27;;;11.77;;
2011;SDS011;1009;51.436;6.972;2022-11-14T04:25:44;13.50;;;12.20;;
2011;SDS011;1009;51.436;6.972;2022-11-14T04:28:11;13.30;;;11.90;;
2011;SDS011;1009;51.436;6.972;2022-11-14T04:30:39;12.40;;;11.07;;
2011;SDS011;1009;51.436;6.972;2022-11-14T04:33:06;15.70;;;13.43;;
2011;SDS011;1009;51.436;6.972;2022-11-14T04:35:33;13.33;;;12.03;;
2011;SDS011;1009;51.436;6.972;2022-11-14T04:38:01;15.33;;;13.30;;
2011;SDS011;1009;51.436;6.972;2022-11-14T04:40:28;14.00;;;12.60;;
2011;SDS011;1009;51.436;6.972;2022-11-14T04:42:55;13.67;;;12.27;;
2011;SDS011;1009;51.436;6.972;2022-11-14T04:45:22;15.00;;;12.17;;
2011;SDS011;1009;51.436;6.972;2022-11-14T04:47:49;16.27;;;13.00;;
2011;SDS011;1009;51.436;6.972;2022-11-14T04:50:15;13.63;;;12.30;;
2011;SDS011;1009;51.436;6.972;2022-11-14T04:52:42;13.43;;;12.03;;
2011;SDS011;1009;51.436;6.972;2022-11-14T04:55:10;15.03;;;13.40;;
2011;SDS011;1009;51.436;6.972;2022-11-14T04:57:37;15.27;;;13.10;;
2011;SDS011;1009;51.436;6.972;2022-11-14T05:00:04;15.53;;;12.47;;
2011;SDS011;1009;51.436;6.972;2022-11-14T05:02:32;14.00;;;12.47;;
2011;SDS011;1009;51.436;6.972;2022-11-14T05:04:59;14.00;;;12.60;;
2011;SDS011;1009;51.436;6.972;2022-11-14T05:07:25;12.97;;;11.60;;
2011;SDS011;1009;51.436;6.972;2022-11-14T05:09:52;13.50;;;12.13;;
2011;SDS011;1009;51.436;6.972;2022-11-14T05:12:20;13.80;;;12.33;;
2011;SDS011;1009;51.436;6.972;2022-11-14T05:14:47;14.90;;;12.47;;
2011;SDS011;1009;51.436;6.972;2022-11-14T05:17:13;13.23;;;11.83;;
2011;SDS011;1009;51.436;6.972;2022-11-14T05:19:40;14.90;;;12.83;;
2011;SDS011;1009;51.436;6.972;2022-11-14T05:22:07;13.77;;;12.37;;
2011;SDS011;1009;51.436;6.972;2022-11-14T05:24:34;12.63;;;11.27;;
2011;SDS011;1009;51.436;6.972;2022-11-14T05:27:01;13.90;;;10.60;;
2011;SDS011;1009;51.436;6.972;2022-11-14T05:29:29;9.97;;;8.93;;
2011;SDS011;1009;51.436;6.972;2022-11-14T05:31:56;12.87;;;10.03;;
2011;SDS011;1009;51.436;6.972;2022-11-14T05:34:22;11.80;;;8.40;;
2011;SDS011;1009;51.436;6.972;2022-11-14T05:36:50;8.67;;;7.87;;
2011;SDS011;1009;51.436;6.972;2022-11-14T05:39:20;9.70;;;7.93;;
2011;SDS011;1009;51.436;6.972;2022-11-14T05:41:47;9.10;;;8.20;;
2011;SDS011;1009;51.436;6.972;2022-11-14T05:44:13;8.80;;;7.90;;
2011;SDS011;1009;51.436;6.972;2022-11-14T05:46:42;9.33;;;8.43;;
2011;SDS011;1009;51.436;6.972;2022-11-14T05:49:08;8.90;;;8.00;;
2011;SDS011;1009;51.436;6.972;2022-11-14T05:51:35;9.27;;;7.53;;
2011;SDS011;1009;51.436;6.972;2022-11-14T05:54:02;10.37;;;8.80;;
2011;SDS011;1009;51.436;6.972;2022-11-14T05:56:29;8.30;;;7.40;;
2011;SDS011;1009;51.436;6.972;2022-11-14T05:58:56;10.80;;;9.30;;
2011;SDS011;1009;51.436;6.972;2022-11-14T06:01:22;12.00;;;10.07;;
2011;SDS011;1009;51.436;6.972;2022-11-14T06:03:50;9.80;;;8.90;;
2011;SDS011;1009;51.436;6.972;2022-11-14T06:06:18;10.53;;;9.50;;
2011;SDS011;1009;51.436;6.972;2022-11-14T06:08:46;10.40;;;9.50;;
2011;SDS011;1009;51.436;6.972;2022-11-14T06:11:14;12.13;;;10.93;;
2011;SDS011;1009;51.436;6.972;2022-11-14T06:13:42;12.33;;;11.13;;
2011;SDS011;1009;51.436;6.972;2022-11-14T06:16:12;13.97;;;12.17;;
2011;SDS011;1009;51.436;6.972;2022-11-14T06:18:41;12.93;;;11.60;;
2011;SDS011;1009;51.436;6.972;2022-11-14T06:21:10;12.30;;;11.10;;
2011;SDS011;1009;51.436;6.972;2022-11-14T06:23:38;13.20;;;11.90;;
2011;SDS011;1009;51.436;6.972;2022-11-14T06:26:06;12.10;;;10.90;;
2011;SDS011;1009;51.436;6.972;2022-11-14T06:28:37;13.90;;;10.33;;
2011;SDS011;1009;51.436;6.972;2022-11-14T06:31:06;12.93;;;11.53;;
2011;SDS011;1009;51.436;6.972;2022-11-14T06:33:34;12.03;;;10.60;;
2011;SDS011;1009;51.436;6.972;2022-11-14T06:36:07;10.30;;;9.30;;
2011;SDS011;1009;51.436;6.972;2022-11-14T06:38:39;11.13;;;9.57;;
2011;SDS011;1009;51.436;6.972;2022-11-14T06:41:07;10.60;;;9.33;;
2011;SDS011;1009;51.436;6.972;2022-11-14T06:43:36;11.47;;;10.27;;
2011;SDS011;1009;51.436;6.972;2022-11-14T06:46:04;10.90;;;9.60;;
2011;SDS011;1009;51.436;6.972;2022-11-14T06:48:32;10.73;;;9.63;;
2011;SDS011;1009;51.436;6.972;2022-11-14T06:51:00;10.87;;;9.40;;
2011;SDS011;1009;51.436;6.972;2022-11-14T06:53:29;11.63;;;10.30;;
2011;SDS011;1009;51.436;6.972;2022-11-14T06:55:58;9.83;;;8.83;;
2011;SDS011;1009;51.436;6.972;2022-11-14T06:58:26;12.20;;;9.40;;
2011;SDS011;1009;51.436;6.972;2022-11-14T07:00:53;10.10;;;9.10;;
2011;SDS011;1009;51.436;6.972;2022-11-14T07:03:20;10.87;;;9.20;;
2011;SDS011;1009;51.436;6.972;2022-11-14T07:05:48;10.60;;;9.40;;
2011;SDS011;1009;51.436;6.972;2022-11-14T07:08:14;11.33;;;8.90;;
2011;SDS011;1009;51.436;6.972;2022-11-14T07:10:43;10.50;;;9.23;;
2011;SDS011;1009;51.436;6.972;2022-11-14T07:13:09;12.80;;;10.20;;
2011;SDS011;1009;51.436;6.972;2022-11-14T07:15:36;10.43;;;8.90;;
2011;SDS011;1009;51.436;6.972;2022-11-14T07:18:03;12.70;;;10.07;;
2011;SDS011;1009;51.436;6.972;2022-11-14T07:20:30;11.20;;;10.00;;
2011;SDS011;1009;51.436;6.972;2022-11-14T07:22:57;10.20;;;9.20;;
2011;SDS011;1009;51.436;6.972;2022-11-14T07:25:23;10.37;;;9.37;;
2011;SDS011;1009;51.436;6.972;2022-11-14T07:27:52;11.60;;;10.40;;
2011;SDS011;1009;51.436;6.972;2022-11-14T07:30:18;12.37;;;10.33;;
2011;SDS011;1009;51.436;6.972;2022-11-14T07:32:45;10.33;;;9.23;;
2011;SDS011;1009;51.436;6.972;2022-11-14T07:35:12;13.70;;;10.63;;
2011;SDS011;1009;51.436;6.972;2022-11-14T07:37:39;10.83;;;9.73;;
2011;SDS011;1009;51.436;6.972;2022-11-14T07:40:06;13.30;;;10.10;;
2011;SDS011;1009;51.436;6.972;2022-11-14T07:42:33;10.77;;;9.67;;
2011;SDS011;1009;51.436;6.972;2022-11-14T07:45:01;12.50;;;10.20;;
2011;SDS011;1009;51.436;6.972;2022-11-14T07:47:28;13.40;;;10.70;;
2011;SDS011;1009;51.436;6.972;2022-11-14T07:49:55;12.30;;;9.93;;
2011;SDS011;1009;51.436;6.972;2022-11-14T07:52:22;10.70;;;9.60;;
2011;SDS011;1009;51.436;6.972;2022-11-14T07:54:49;11.90;;;9.73;;
2011;SDS011;1009;51.436;6.972;2022-11-14T07:57:15;11.80;;;9.87;;
2011;SDS011;1009;51.436;6.972;2022-11-14T07:59:42;11.47;;;9.70;;
2011;SDS011;1009;51.436;6.972;2022-11-14T08:02:12;11.20;;;9.57;;
2011;SDS011;1009;51.436;6.972;2022-11-14T08:04:39;11.47;;;8.73;;
2011;SDS011;1009;51.436;6.972;2022-11-14T08:07:06;12.50;;;10.07;;
2011;SDS011;1009;51.436;6.972;2022-11-14T08:09:33;11.03;;;9.87;;
2011;SDS011;1009;51.436;6.972;2022-11-14T08:12:00;12.97;;;11.30;;
2011;SDS011;1009;51.436;6.972;2022-11-14T08:14:27;11.93;;;10.47;;
2011;SDS011;1009;51.436;6.972;2022-11-14T08:16:53;10.93;;;9.67;;
2011;SDS011;1009;51.436;6.972;2022-11-14T08:19:21;12.60;;;11.10;;
2011;SDS011;1009;51.436;6.972;2022-11-14T08:21:48;13.20;;;10.73;;
2011;SDS011;1009;51.436;6.972;2022-11-14T08:24:15;12.57;;;11.27;;
2011;SDS011;1009;51.436;6.972;2022-11-14T08:26:41;14.20;;;11.43;;
2011;SDS011;1009;51.436;6.972;2022-11-14T08:29:08;14.97;;;12.23;;
2011;SDS011;1009;51.436;6.972;2022-11-14T08:31:35;16.83;;;12.40;;
2011;SDS011;1009;51.436;6.972;2022-11-14T08:34:02;13.70;;;11.57;;
2011;SDS011;1009;51.436;6.972;2022-11-14T08:36:30;12.60;;;11.30;;
2011;SDS011;1009;51.436;6.972;2022-11-14T08:38:56;12.60;;;11.30;;
2011;SDS011;1009;51.436;6.972;2022-11-14T08:41:23;14.60;;;11.03;;
2011;SDS011;1009;51.436;6.972;2022-11-14T08:43:50;13.60;;;11.80;;
2011;SDS011;1009;51.436;6.972;2022-11-14T08:46:16;12.93;;;10.03;;
2011;SDS011;1009;51.436;6.972;2022-11-14T08:48:43;14.13;;;11.30;;
2011;SDS011;1009;51.436;6.972;2022-11-14T08:51:10;18.20;;;10.80;;
2011;SDS011;1009;51.436;6.972;2022-11-14T08:53:38;16.00;;;12.53;;
2011;SDS011;1009;51.436;6.972;2022-11-14T08:56:05;14.10;;;11.83;;
2011;SDS011;1009;51.436;6.972;2022-11-14T08:58:32;17.97;;;12.60;;
2011;SDS011;1009;51.436;6.972;2022-11-14T09:00:59;18.13;;;13.17;;
2011;SDS011;1009;51.436;6.972;2022-11-14T09:03:26;17.83;;;13.53;;
2011;SDS011;1009;51.436;6.972;2022-11-14T09:05:53;16.20;;;13.93;;
2011;SDS011;1009;51.436;6.972;2022-11-14T09:08:20;18.17;;;13.47;;
2011;SDS011;1009;51.436;6.972;2022-11-14T09:10:49;17.77;;;14.20;;
2011;SDS011;1009;51.436;6.972;2022-11-14T09:13:15;17.47;;;14.37;;
2011;SDS011;1009;51.436;6.972;2022-11-14T09:15:42;16.63;;;13.50;;
2011;SDS011;1009;51.436;6.972;2022-11-14T09:18:12;18.77;;;15.57;;
2011;SDS011;1009;51.436;6.972;2022-11-14T09:20:40;20.13;;;14.90;;
2011;SDS011;1009;51.436;6.972;2022-11-14T09:23:08;17.47;;;15.57;;
2011;SDS011;1009;51.436;6.972;2022-11-14T09:25:34;17.77;;;15.57;;
2011;SDS011;1009;51.436;6.972;2022-11-14T09:28:04;18.63;;;15.77;;
2011;SDS011;1009;51.436;6.972;2022-11-14T09:30:32;21.23;;;16.67;;
2011;SDS011;1009;51.436;6.972;2022-11-14T09:32:59;22.47;;;18.17;;
2011;SDS011;1009;51.436;6.972;2022-11-14T09:35:26;21.53;;;17.73;;
2011;SDS011;1009;51.436;6.972;2022-11-14T09:38:00;20.60;;;17.27;;
2011;SDS011;1009;51.436;6.972;2022-11-14T09:40:27;21.83;;;17.80;;
2011;SDS011;1009;51.436;6.972;2022-11-14T09:43:08;20.40;;;17.17;;
2011;SDS011;1009;51.436;6.972;2022-11-14T09:45:46;23.43;;;18.30;;
2011;SDS011;1009;51.436;6.972;2022-11-14T09:48:17;23.53;;;19.47;;
2011;SDS011;1009;51.436;6.972;2022-11-14T09:50:47;25.53;;;19.43;;
2011;SDS011;1009;51.436;6.972;2022-11-14T09:53:28;27.23;;;21.70;;
2011;SDS011;1009;51.436;6.972;2022-11-14T09:55:58;22.90;;;18.70;;
2011;SDS011;1009;51.436;6.972;2022-11-14T09:58:26;24.43;;;19.90;;
2011;SDS011;1009;51.436;6.972;2022-11-14T10:00:53;23.43;;;19.23;;
2011;SDS011;1009;51.436;6.972;2022-11-14T10:03:28;20.80;;;17.50;;
2011;SDS011;1009;51.436;6.972;2022-11-14T10:06:10;22.50;;;17.93;;
2011;SDS011;1009;51.436;6.972;2022-11-14T10:09:00;23.03;;;18.87;;
2011;SDS011;1009;51.436;6.972;2022-11-14T10:11:37;22.50;;;18.07;;
2011;SDS011;1009;51.436;6.972;2022-11-14T10:17:13;21.63;;;18.20;;
2011;SDS011;1009;51.436;6.972;2022-11-14T10:19:56;21.37;;;19.03;;
2011;SDS011;1009;51.436;6.972;2022-11-14T10:22:35;23.40;;;20.27;;
2011;SDS011;1009;51.436;6.972;2022-11-14T10:25:18;22.90;;;17.57;;
2011;SDS011;1009;51.436;6.972;2022-11-14T10:28:03;19.77;;;15.37;;
2011;SDS011;1009;51.436;6.972;2022-11-14T10:30:46;17.27;;;13.20;;
2011;SDS011;1009;51.436;6.972;2022-11-14T10:33:24;17.27;;;14.30;;
2011;SDS011;1009;51.436;6.972;2022-11-14T10:35:59;17.47;;;13.67;;
2011;SDS011;1009;51.436;6.972;2022-11-14T10:38:33;17.87;;;12.37;;
2011;SDS011;1009;51.436;6.972;2022-11-14T10:41:04;15.40;;;12.97;;
2011;SDS011;1009;51.436;6.972;2022-11-14T10:43:33;15.77;;;12.30;;
2011;SDS011;1009;51.436;6.972;2022-11-14T10:46:08;14.83;;;11.93;;
2011;SDS011;1009;51.436;6.972;2022-11-14T10:48:40;12.80;;;9.60;;
2011;SDS011;1009;51.436;6.972;2022-11-14T10:51:11;18.30;;;12.43;;
2011;SDS011;1009;51.436;6.972;2022-11-14T10:53:49;17.73;;;11.93;;
2011;SDS011;1009;51.436;6.972;2022-11-14T10:56:20;15.20;;;12.03;;
2011;SDS011;1009;51.436;6.972;2022-11-14T10:58:47;14.07;;;10.87;;
2011;SDS011;1009;51.436;6.972;2022-11-14T11:01:37;15.00;;;11.50;;
2011;SDS011;1009;51.436;6.972;2022-11-14T11:04:10;12.33;;;10.70;;
2011;SDS011;1009;51.436;6.972;2022-11-14T11:06:39;14.23;;;10.13;;
2011;SDS011;1009;51.436;6.972;2022-11-14T11:09:06;11.10;;;8.73;;
2011;SDS011;1009;51.436;6.972;2022-11-14T11:11:52;13.47;;;9.60;;
2011;SDS011;1009;51.436;6.972;2022-11-14T11:14:21;10.43;;;9.20;;
2011;SDS011;1009;51.436;6.972;2022-11-14T11:16:50;10.23;;;8.93;;
2011;SDS011;1009;51.436;6.972;2022-11-14T11:19:33;18.90;;;8.53;;
2011;SDS011;1009;51.436;6.972;2022-11-14T11:22:00;13.13;;;10.60;;
2011;SDS011;1009;51.436;6.972;2022-11-14T11:24:30;13.47;;;9.87;;
2011;SDS011;1009;51.436;6.972;2022-11-14T11:27:18;11.50;;;9.87;;
2011;SDS011;1009;51.436;6.972;2022-11-14T11:29:49;13.13;;;9.87;;
2011;SDS011;1009;51.436;6.972;2022-11-14T11:32:31;12.93;;;9.53;;
2011;SDS011;1009;51.436;6.972;2022-11-14T11:34:59;12.60;;;9.57;;
2011;SDS011;1009;51.436;6.972;2022-11-14T11:37:29;15.27;;;9.50;;
2011;SDS011;1009;51.436;6.972;2022-11-14T11:40:01;10.97;;;8.30;;
2011;SDS011;1009;51.436;6.972;2022-11-14T11:42:32;12.47;;;8.33;;
2011;SDS011;1009;51.436;6.972;2022-11-14T11:45:04;15.83;;;9.97;;
2011;SDS011;1009;51.436;6.972;2022-11-14T11:47:39;11.80;;;8.73;;
2011;SDS011;1009;51.436;6.972;2022-11-14T11:50:10;12.00;;;9.67;;
2011;SDS011;1009;51.436;6.972;2022-11-14T11:52:42;13.93;;;10.03;;
2011;SDS011;1009;51.436;6.972;2022-11-14T11:55:15;12.00;;;9.33;;
2011;SDS011;1009;51.436;6.972;2022-11-14T11:57:46;16.57;;;9.90;;
2011;SDS011;1009;51.436;6.972;2022-11-14T12:00:19;14.80;;;9.90;;
2011;SDS011;1009;51.436;6.972;2022-11-14T12:02:49;12.80;;;10.50;;
2011;SDS011;1009;51.436;6.972;2022-11-14T12:05:17;13.00;;;9.30;;
2011;SDS011;1009;51.436;6.972;2022-11-14T12:07:52;12.83;;;9.33;;
2011;SDS011;1009;51.436;6.972;2022-11-14T12:10:24;16.83;;;10.77;;
2011;SDS011;1009;51.436;6.972;2022-11-14T12:15:49;16.70;;;11.10;;
2011;SDS011;1009;51.436;6.972;2022-11-14T12:18:34;12.83;;;9.80;;
2011;SDS011;1009;51.436;6.972;2022-11-14T12:21:16;14.07;;;10.33;;
2011;SDS011;1009;51.436;6.972;2022-11-14T12:23:56;13.87;;;11.00;;
2011;SDS011;1009;51.436;6.972;2022-11-14T12:26:43;13.40;;;10.23;;
2011;SDS011;1009;51.436;6.972;2022-11-14T12:29:47;15.37;;;11.20;;
2011;SDS011;1009;51.436;6.972;2022-11-14T12:32:28;16.47;;;11.37;;
2011;SDS011;1009;51.436;6.972;2022-11-14T12:34:59;16.17;;;11.17;;
2011;SDS011;1009;51.436;6.972;2022-11-14T12:37:30;24.43;;;12.40;;
2011;SDS011;1009;51.436;6.972;2022-11-14T12:40:00;15.60;;;11.60;;
2011;SDS011;1009;51.436;6.972;2022-11-14T12:42:30;17.17;;;10.60;;
2011;SDS011;1009;51.436;6.972;2022-11-14T12:44:57;14.23;;;10.63;;
2011;SDS011;1009;51.436;6.972;2022-11-14T12:47:24;12.70;;;10.87;;
2011;SDS011;1009;51.436;6.972;2022-11-14T12:50:03;14.40;;;10.40;;
2011;SDS011;1009;51.436;6.972;2022-11-14T12:52:46;16.50;;;10.37;;
2011;SDS011;1009;51.436;6.972;2022-11-14T13:04:15;15.10;;;10.57;;
2011;SDS011;1009;51.436;6.972;2022-11-14T13:06:53;15.97;;;11.90;;
2011;SDS011;1009;51.436;6.972;2022-11-14T13:09:30;14.00;;;10.50;;
2011;SDS011;1009;51.436;6.972;2022-11-14T13:12:07;12.07;;;9.53;;
2011;SDS011;1009;51.436;6.972;2022-11-14T13:15:24;11.90;;;9.43;;
2011;SDS011;1009;51.436;6.972;2022-11-14T13:18:14;12.33;;;9.70;;
2011;SDS011;1009;51.436;6.972;2022-11-14T13:21:03;12.90;;;9.70;;
2011;SDS011;1009;51.436;6.972;2022-11-14T13:23:54;11.70;;;9.27;;
2011;SDS011;1009;51.436;6.972;2022-11-14T13:26:34;12.83;;;9.27;;
2011;SDS011;1009;51.436;6.972;2022-11-14T13:35:35;12.17;;;8.73;;
2011;SDS011;1009;51.436;6.972;2022-11-14T13:38:31;11.23;;;9.40;;
2011;SDS011;1009;51.436;6.972;2022-11-14T13:41:35;13.87;;;8.60;;
2011;SDS011;1009;51.436;6.972;2022-11-14T13:44:32;13.40;;;8.70;;
2011;SDS011;1009;51.436;6.972;2022-11-14T13:50:12;10.27;;;8.00;;
2011;SDS011;1009;51.436;6.972;2022-11-14T13:52:42;13.17;;;9.67;;
2011;SDS011;1009;51.436;6.972;2022-11-14T13:55:17;13.87;;;10.27;;
2011;SDS011;1009;51.436;6.972;2022-11-14T13:57:48;17.10;;;10.97;;
2011;SDS011;1009;51.436;6.972;2022-11-14T14:00:27;15.93;;;10.97;;
2011;SDS011;1009;51.436;6.972;2022-11-14T14:05:48;21.73;;;12.90;;
2011;SDS011;1009;51.436;6.972;2022-11-14T14:08:29;17.37;;;12.87;;
2011;SDS011;1009;51.436;6.972;2022-11-14T14:11:15;18.23;;;11.00;;
2011;SDS011;1009;51.436;6.972;2022-11-14T14:13:56;18.23;;;12.97;;
2011;SDS011;1009;51.436;6.972;2022-11-14T14:16:34;16.50;;;11.93;;
2011;SDS011;1009;51.436;6.972;2022-11-14T14:19:07;20.57;;;12.20;;
2011;SDS011;1009;51.436;6.972;2022-11-14T14:21:42;18.57;;;10.93;;
2011;SDS011;1009;51.436;6.972;2022-11-14T14:24:18;18.70;;;11.97;;
2011;SDS011;1009;51.436;6.972;2022-11-14T14:27:01;21.30;;;13.27;;
2011;SDS011;1009;51.436;6.972;2022-11-14T14:29:39;18.57;;;12.43;;
2011;SDS011;1009;51.436;6.972;2022-11-14T14:32:13;16.80;;;13.00;;
2011;SDS011;1009;51.436;6.972;2022-11-14T14:34:41;19.10;;;13.63;;
2011;SDS011;1009;51.436;6.972;2022-11-14T14:37:14;17.87;;;12.60;;
2011;SDS011;1009;51.436;6.972;2022-11-14T14:39:54;16.90;;;12.00;;
2011;SDS011;1009;51.436;6.972;2022-11-14T14:42:22;17.80;;;12.83;;
2011;SDS011;1009;51.436;6.972;2022-11-14T14:44:50;20.53;;;11.77;;
2011;SDS011;1009;51.436;6.972;2022-11-14T14:47:26;15.30;;;11.50;;
2011;SDS011;1009;51.436;6.972;2022-11-14T14:49:58;19.10;;;12.80;;
2011;SDS011;1009;51.436;6.972;2022-11-14T14:52:27;18.73;;;13.50;;
2011;SDS011;1009;51.436;6.972;2022-11-14T14:54:56;20.63;;;13.60;;
2011;SDS011;1009;51.436;6.972;2022-11-14T14:57:26;17.80;;;12.47;;
2011;SDS011;1009;51.436;6.972;2022-11-14T14:59:59;16.93;;;13.17;;
2011;SDS011;1009;51.436;6.972;2022-11-14T15:02:26;18.57;;;13.80;;
2011;SDS011;1009;51.436;6.972;2022-11-14T15:04:54;17.40;;;12.80;;
2011;SDS011;1009;51.436;6.972;2022-11-14T15:07:22;17.80;;;12.50;;
2011;SDS011;1009;51.436;6.972;2022-11-14T15:09:51;20.23;;;14.13;;
2011;SDS011;1009;51.436;6.972;2022-11-14T15:12:18;16.73;;;13.20;;
2011;SDS011;1009;51.436;6.972;2022-11-14T15:14:46;18.47;;;12.80;;
2011;SDS011;1009;51.436;6.972;2022-11-14T15:17:15;17.20;;;13.20;;
2011;SDS011;1009;51.436;6.972;2022-11-14T15:19:43;21.37;;;14.23;;
2011;SDS011;1009;51.436;6.972;2022-11-14T15:22:22;19.93;;;14.07;;
2011;SDS011;1009;51.436;6.972;2022-11-14T15:27:44;18.00;;;12.87;;
2011;SDS011;1009;51.436;6.972;2022-11-14T15:30:19;18.30;;;13.27;;
2011;SDS011;1009;51.436;6.972;2022-11-14T15:32:49;22.40;;;14.83;;
2011;SDS011;1009;51.436;6.972;2022-11-14T15:35:25;18.67;;;14.80;;
2011;SDS011;1009;51.436;6.972;2022-11-14T15:38:16;23.73;;;15.20;;